sensor_id;sensor_type;location;lat;lon;timestamp;P1;durP1;ratioP1;P2;durP2;ratioP2
15317;SDS011;7759;52.528;13.346;2023-06-10T00:01:30;3.83;;;2.40;;
15317;SDS011;7759;52.528;13.346;2023-06-10T00:03:56;7.03;;;2.90;;
15317;SDS011;7759;52.528;13.346;2023-06-10T00:06:22;4.75;;;2.63;;
15317;SDS011;7759;52.528;13.346;2023-06-10T00:08:49;5.65;;;2.75;;
15317;SDS011;7759;52.528;13.346;2023-06-10T00:11:15;8.50;;;3.17;;
15317;SDS011;7759;52.528;13.346;2023-06-10T00:13:41;6.22;;;3.05;;
15317;SDS011;7759;52.528;13.346;2023-06-10T00:16:07;5.47;;;2.42;;
15317;SDS011;7759;52.528;13.346;2023-06-10T00:18:33;4.80;;;2.60;;
15317;SDS011;7759;52.528;13.346;2023-06-10T00:21:01;7.22;;;2.45;;
15317;SDS011;7759;52.528;13.346;2023-06-10T00:23:30;5.35;;;2.65;;
15317;SDS011;7759;52.528;13.346;2023-06-10T00:25:57;6.20;;;2.40;;
15317;SDS011;7759;52.528;13.346;2023-06-10T00:28:24;4.88;;;2.38;;
15317;SDS011;7759;52.528;13.346;2023-06-10T00:30:50;4.72;;;2.15;;
15317;SDS011;7759;52.528;13.346;2023-06-10T00:33:16;6.47;;;2.83;;
15317;SDS011;7759;52.528;13.346;2023-06-10T00:35:42;6.47;;;2.40;;
15317;SDS011;7759;52.528;13.346;2023-06-10T00:38:08;5.18;;;2.10;;
15317;SDS011;7759;52.528;13.346;2023-06-10T00:40:40;5.60;;;2.40;;
15317;SDS011;7759;52.528;13.346;2023-06-10T00:43:07;4.28;;;2.30;;
15317;SDS011;7759;52.528;13.346;2023-06-10T00:45:33;5.32;;;2.40;;
15317;SDS011;7759;52.528;13.346;2023-06-10T00:47:59;5.45;;;2.60;;
15317;SDS011;7759;52.528;13.346;2023-06-10T00:50:25;4.55;;;2.60;;
15317;SDS011;7759;52.528;13.346;2023-06-10T00:52:51;4.75;;;2.50;;
15317;SDS011;7759;52.528;13.346;2023-06-10T00:55:18;5.72;;;2.38;;
15317;SDS011;7759;52.528;13.346;2023-06-10T00:57:45;3.00;;;2.10;;
15317;SDS011;7759;52.528;13.346;2023-06-10T01:00:13;5.43;;;2.90;;
15317;SDS011;7759;52.528;13.346;2023-06-10T01:02:40;6.70;;;2.90;;
15317;SDS011;7759;52.528;13.346;2023-06-10T01:05:06;4.07;;;2.53;;
15317;SDS011;7759;52.528;13.346;2023-06-10T01:10:04;6.93;;;2.40;;
15317;SDS011;7759;52.528;13.346;2023-06-10T01:12:37;7.32;;;2.70;;
15317;SDS011;7759;52.528;13.346;2023-06-10T01:15:06;3.97;;;2.25;;
15317;SDS011;7759;52.528;13.346;2023-06-10T01:17:33;6.32;;;2.58;;
15317;SDS011;7759;52.528;13.346;2023-06-10T01:19:59;8.40;;;2.50;;
15317;SDS011;7759;52.528;13.346;2023-06-10T01:22:25;4.55;;;2.47;;
15317;SDS011;7759;52.528;13.346;2023-06-10T01:24:57;4.50;;;2.70;;
15317;SDS011;7759;52.528;13.346;2023-06-10T01:27:23;8.27;;;2.60;;
15317;SDS011;7759;52.528;13.346;2023-06-10T01:29:58;7.57;;;2.60;;
15317;SDS011;7759;52.528;13.346;2023-06-10T01:32:32;6.60;;;3.03;;
15317;SDS011;7759;52.528;13.346;2023-06-10T01:35:00;4.68;;;2.50;;
15317;SDS011;7759;52.528;13.346;2023-06-10T01:37:27;5.80;;;2.60;;
15317;SDS011;7759;52.528;13.346;2023-06-10T01:39:55;5.50;;;2.72;;
15317;SDS011;7759;52.528;13.346;2023-06-10T01:42:23;3.65;;;2.35;;
15317;SDS011;7759;52.528;13.346;2023-06-10T01:44:49;4.35;;;2.55;;
15317;SDS011;7759;52.528;13.346;2023-06-10T01:47:15;5.65;;;2.65;;
15317;SDS011;7759;52.528;13.346;2023-06-10T01:49:41;7.03;;;2.88;;
15317;SDS011;7759;52.528;13.346;2023-06-10T01:52:07;6.97;;;2.67;;
15317;SDS011;7759;52.528;13.346;2023-06-10T01:54:33;4.85;;;2.10;;
15317;SDS011;7759;52.528;13.346;2023-06-10T01:56:59;7.57;;;4.32;;
15317;SDS011;7759;52.528;13.346;2023-06-10T01:59:25;5.93;;;2.58;;
15317;SDS011;7759;52.528;13.346;2023-06-10T02:01:51;5.32;;;2.67;;
15317;SDS011;7759;52.528;13.346;2023-06-10T02:04:17;5.63;;;2.38;;
15317;SDS011;7759;52.528;13.346;2023-06-10T02:06:43;5.70;;;2.58;;
15317;SDS011;7759;52.528;13.346;2023-06-10T02:09:10;5.88;;;2.42;;
15317;SDS011;7759;52.528;13.346;2023-06-10T02:11:36;5.10;;;2.60;;
15317;SDS011;7759;52.528;13.346;2023-06-10T02:14:02;5.32;;;2.03;;
15317;SDS011;7759;52.528;13.346;2023-06-10T02:16:27;6.15;;;3.22;;
15317;SDS011;7759;52.528;13.346;2023-06-10T02:18:53;6.53;;;2.95;;
15317;SDS011;7759;52.528;13.346;2023-06-10T02:21:20;4.68;;;2.50;;
15317;SDS011;7759;52.528;13.346;2023-06-10T02:23:46;5.93;;;2.63;;
15317;SDS011;7759;52.528;13.346;2023-06-10T02:26:12;5.80;;;2.55;;
15317;SDS011;7759;52.528;13.346;2023-06-10T02:28:40;4.57;;;2.97;;
15317;SDS011;7759;52.528;13.346;2023-06-10T02:31:07;5.03;;;2.67;;
15317;SDS011;7759;52.528;13.346;2023-06-10T02:33:33;6.15;;;2.25;;
15317;SDS011;7759;52.528;13.346;2023-06-10T02:35:59;4.07;;;2.72;;
15317;SDS011;7759;52.528;13.346;2023-06-10T02:38:25;4.82;;;2.63;;
15317;SDS011;7759;52.528;13.346;2023-06-10T02:40:51;7.60;;;2.58;;
15317;SDS011;7759;52.528;13.346;2023-06-10T02:43:17;5.30;;;2.78;;
15317;SDS011;7759;52.528;13.346;2023-06-10T02:45:43;5.30;;;2.42;;
15317;SDS011;7759;52.528;13.346;2023-06-10T02:48:10;4.95;;;2.65;;
15317;SDS011;7759;52.528;13.346;2023-06-10T02:50:36;6.72;;;2.95;;
15317;SDS011;7759;52.528;13.346;2023-06-10T02:53:05;4.80;;;2.50;;
15317;SDS011;7759;52.528;13.346;2023-06-10T02:55:30;8.40;;;2.72;;
15317;SDS011;7759;52.528;13.346;2023-06-10T02:57:57;5.45;;;2.53;;
15317;SDS011;7759;52.528;13.346;2023-06-10T03:00:24;6.38;;;2.92;;
15317;SDS011;7759;52.528;13.346;2023-06-10T03:02:50;5.20;;;2.80;;
15317;SDS011;7759;52.528;13.346;2023-06-10T03:05:16;8.15;;;3.00;;
15317;SDS011;7759;52.528;13.346;2023-06-10T03:07:42;4.90;;;2.83;;
15317;SDS011;7759;52.528;13.346;2023-06-10T03:10:08;7.43;;;2.92;;
15317;SDS011;7759;52.528;13.346;2023-06-10T03:12:34;6.85;;;3.08;;
15317;SDS011;7759;52.528;13.346;2023-06-10T03:14:59;4.95;;;2.50;;
15317;SDS011;7759;52.528;13.346;2023-06-10T03:17:26;7.88;;;2.75;;
15317;SDS011;7759;52.528;13.346;2023-06-10T03:19:52;7.07;;;3.20;;
15317;SDS011;7759;52.528;13.346;2023-06-10T03:22:17;6.05;;;2.95;;
15317;SDS011;7759;52.528;13.346;2023-06-10T03:24:43;5.25;;;2.63;;
15317;SDS011;7759;52.528;13.346;2023-06-10T03:27:11;4.90;;;2.47;;
15317;SDS011;7759;52.528;13.346;2023-06-10T03:29:38;4.07;;;2.35;;
15317;SDS011;7759;52.528;13.346;2023-06-10T03:32:04;8.10;;;3.30;;
15317;SDS011;7759;52.528;13.346;2023-06-10T03:34:30;4.55;;;3.00;;
15317;SDS011;7759;52.528;13.346;2023-06-10T03:36:56;6.38;;;3.28;;
15317;SDS011;7759;52.528;13.346;2023-06-10T03:39:22;6.07;;;3.00;;
15317;SDS011;7759;52.528;13.346;2023-06-10T03:41:48;5.47;;;2.45;;
15317;SDS011;7759;52.528;13.346;2023-06-10T03:44:14;5.07;;;3.00;;
15317;SDS011;7759;52.528;13.346;2023-06-10T03:46:40;6.47;;;2.80;;
15317;SDS011;7759;52.528;13.346;2023-06-10T03:49:06;7.50;;;2.90;;
15317;SDS011;7759;52.528;13.346;2023-06-10T03:51:32;8.43;;;3.35;;
15317;SDS011;7759;52.528;13.346;2023-06-10T03:53:58;5.15;;;2.97;;
15317;SDS011;7759;52.528;13.346;2023-06-10T03:56:24;4.93;;;2.60;;
15317;SDS011;7759;52.528;13.346;2023-06-10T03:58:50;5.50;;;2.78;;
15317;SDS011;7759;52.528;13.346;2023-06-10T04:01:16;7.20;;;2.95;;
15317;SDS011;7759;52.528;13.346;2023-06-10T04:03:43;5.05;;;2.50;;
15317;SDS011;7759;52.528;13.346;2023-06-10T04:06:09;4.85;;;3.00;;
15317;SDS011;7759;52.528;13.346;2023-06-10T04:08:35;6.57;;;3.50;;
15317;SDS011;7759;52.528;13.346;2023-06-10T04:11:01;6.85;;;3.20;;
15317;SDS011;7759;52.528;13.346;2023-06-10T04:13:27;7.10;;;2.90;;
15317;SDS011;7759;52.528;13.346;2023-06-10T04:15:53;3.90;;;2.88;;
15317;SDS011;7759;52.528;13.346;2023-06-10T04:18:21;6.28;;;2.72;;
15317;SDS011;7759;52.528;13.346;2023-06-10T04:20:47;6.75;;;2.80;;
15317;SDS011;7759;52.528;13.346;2023-06-10T04:23:13;7.20;;;2.97;;
15317;SDS011;7759;52.528;13.346;2023-06-10T04:25:39;5.30;;;2.80;;
15317;SDS011;7759;52.528;13.346;2023-06-10T04:28:05;5.95;;;3.13;;
15317;SDS011;7759;52.528;13.346;2023-06-10T04:30:31;4.47;;;2.75;;
15317;SDS011;7759;52.528;13.346;2023-06-10T04:32:57;7.03;;;3.20;;
15317;SDS011;7759;52.528;13.346;2023-06-10T04:35:23;5.93;;;3.15;;
15317;SDS011;7759;52.528;13.346;2023-06-10T04:37:51;5.55;;;3.30;;
15317;SDS011;7759;52.528;13.346;2023-06-10T04:40:17;7.13;;;3.03;;
15317;SDS011;7759;52.528;13.346;2023-06-10T04:42:43;5.63;;;3.05;;
15317;SDS011;7759;52.528;13.346;2023-06-10T04:45:09;5.88;;;3.30;;
15317;SDS011;7759;52.528;13.346;2023-06-10T04:47:35;5.18;;;3.20;;
15317;SDS011;7759;52.528;13.346;2023-06-10T04:50:01;5.35;;;3.63;;
15317;SDS011;7759;52.528;13.346;2023-06-10T04:52:28;7.72;;;3.10;;
15317;SDS011;7759;52.528;13.346;2023-06-10T04:54:54;5.43;;;3.10;;
15317;SDS011;7759;52.528;13.346;2023-06-10T04:57:20;6.20;;;3.20;;
15317;SDS011;7759;52.528;13.346;2023-06-10T04:59:47;6.20;;;3.20;;
15317;SDS011;7759;52.528;13.346;2023-06-10T05:02:13;6.40;;;3.17;;
15317;SDS011;7759;52.528;13.346;2023-06-10T05:04:39;8.25;;;3.13;;
15317;SDS011;7759;52.528;13.346;2023-06-10T05:07:05;5.97;;;2.97;;
15317;SDS011;7759;52.528;13.346;2023-06-10T05:09:31;8.55;;;3.20;;
15317;SDS011;7759;52.528;13.346;2023-06-10T05:11:57;4.57;;;3.20;;
15317;SDS011;7759;52.528;13.346;2023-06-10T05:14:23;7.07;;;3.67;;
15317;SDS011;7759;52.528;13.346;2023-06-10T05:16:49;3.50;;;2.78;;
15317;SDS011;7759;52.528;13.346;2023-06-10T05:19:15;7.03;;;3.28;;
15317;SDS011;7759;52.528;13.346;2023-06-10T05:21:42;5.35;;;3.80;;
15317;SDS011;7759;52.528;13.346;2023-06-10T05:24:08;6.30;;;3.22;;
15317;SDS011;7759;52.528;13.346;2023-06-10T05:26:34;7.78;;;4.03;;
15317;SDS011;7759;52.528;13.346;2023-06-10T05:29:04;5.63;;;3.20;;
15317;SDS011;7759;52.528;13.346;2023-06-10T05:31:30;7.88;;;3.63;;
15317;SDS011;7759;52.528;13.346;2023-06-10T05:33:56;7.13;;;4.45;;
15317;SDS011;7759;52.528;13.346;2023-06-10T05:36:22;5.35;;;3.50;;
15317;SDS011;7759;52.528;13.346;2023-06-10T05:38:50;7.53;;;3.22;;
15317;SDS011;7759;52.528;13.346;2023-06-10T05:41:16;4.95;;;2.78;;
15317;SDS011;7759;52.528;13.346;2023-06-10T05:43:42;4.53;;;3.25;;
15317;SDS011;7759;52.528;13.346;2023-06-10T05:46:08;5.28;;;3.10;;
15317;SDS011;7759;52.528;13.346;2023-06-10T05:48:34;9.23;;;4.90;;
15317;SDS011;7759;52.528;13.346;2023-06-10T05:51:00;8.65;;;3.53;;
15317;SDS011;7759;52.528;13.346;2023-06-10T05:53:26;4.40;;;3.35;;
15317;SDS011;7759;52.528;13.346;2023-06-10T05:55:52;6.15;;;3.33;;
15317;SDS011;7759;52.528;13.346;2023-06-10T05:58:22;6.03;;;3.67;;
15317;SDS011;7759;52.528;13.346;2023-06-10T06:00:48;7.82;;;3.67;;
15317;SDS011;7759;52.528;13.346;2023-06-10T06:03:14;6.13;;;3.58;;
15317;SDS011;7759;52.528;13.346;2023-06-10T06:05:39;6.32;;;3.60;;
15317;SDS011;7759;52.528;13.346;2023-06-10T06:08:05;3.78;;;3.22;;
15317;SDS011;7759;52.528;13.346;2023-06-10T06:10:32;9.63;;;4.05;;
15317;SDS011;7759;52.528;13.346;2023-06-10T06:12:58;6.10;;;3.83;;
15317;SDS011;7759;52.528;13.346;2023-06-10T06:15:24;10.50;;;3.90;;
15317;SDS011;7759;52.528;13.346;2023-06-10T06:17:50;5.95;;;3.55;;
15317;SDS011;7759;52.528;13.346;2023-06-10T06:20:19;7.03;;;3.72;;
15317;SDS011;7759;52.528;13.346;2023-06-10T06:22:45;8.43;;;3.35;;
15317;SDS011;7759;52.528;13.346;2023-06-10T06:25:11;9.02;;;3.75;;
15317;SDS011;7759;52.528;13.346;2023-06-10T06:27:37;5.90;;;3.42;;
15317;SDS011;7759;52.528;13.346;2023-06-10T06:30:03;8.20;;;3.67;;
15317;SDS011;7759;52.528;13.346;2023-06-10T06:32:29;6.57;;;3.55;;
15317;SDS011;7759;52.528;13.346;2023-06-10T06:34:55;6.53;;;4.07;;
15317;SDS011;7759;52.528;13.346;2023-06-10T06:37:21;6.63;;;3.60;;
15317;SDS011;7759;52.528;13.346;2023-06-10T06:39:48;9.80;;;4.30;;
15317;SDS011;7759;52.528;13.346;2023-06-10T06:42:14;5.30;;;3.85;;
15317;SDS011;7759;52.528;13.346;2023-06-10T06:44:40;4.88;;;3.53;;
15317;SDS011;7759;52.528;13.346;2023-06-10T06:47:06;7.18;;;4.07;;
15317;SDS011;7759;52.528;13.346;2023-06-10T06:49:32;7.88;;;4.43;;
15317;SDS011;7759;52.528;13.346;2023-06-10T06:51:58;7.13;;;3.83;;
15317;SDS011;7759;52.528;13.346;2023-06-10T06:54:24;6.20;;;3.72;;
15317;SDS011;7759;52.528;13.346;2023-06-10T06:56:50;10.30;;;4.20;;
15317;SDS011;7759;52.528;13.346;2023-06-10T06:59:16;6.70;;;3.80;;
15317;SDS011;7759;52.528;13.346;2023-06-10T07:01:44;7.63;;;4.45;;
15317;SDS011;7759;52.528;13.346;2023-06-10T07:04:10;10.65;;;4.15;;
15317;SDS011;7759;52.528;13.346;2023-06-10T07:06:36;6.65;;;4.07;;
15317;SDS011;7759;52.528;13.346;2023-06-10T07:09:02;9.02;;;4.28;;
15317;SDS011;7759;52.528;13.346;2023-06-10T07:11:29;8.02;;;4.35;;
15317;SDS011;7759;52.528;13.346;2023-06-10T07:13:55;6.80;;;3.85;;
15317;SDS011;7759;52.528;13.346;2023-06-10T07:16:21;6.28;;;3.92;;
15317;SDS011;7759;52.528;13.346;2023-06-10T07:18:47;5.47;;;3.90;;
15317;SDS011;7759;52.528;13.346;2023-06-10T07:21:12;7.18;;;4.75;;
15317;SDS011;7759;52.528;13.346;2023-06-10T07:23:41;5.43;;;3.83;;
15317;SDS011;7759;52.528;13.346;2023-06-10T07:26:07;6.88;;;3.80;;
15317;SDS011;7759;52.528;13.346;2023-06-10T07:28:36;11.80;;;4.70;;
15317;SDS011;7759;52.528;13.346;2023-06-10T07:31:02;11.35;;;4.28;;
15317;SDS011;7759;52.528;13.346;2023-06-10T07:33:27;6.07;;;4.13;;
15317;SDS011;7759;52.528;13.346;2023-06-10T07:35:53;5.65;;;3.63;;
15317;SDS011;7759;52.528;13.346;2023-06-10T07:38:19;7.10;;;4.32;;
15317;SDS011;7759;52.528;13.346;2023-06-10T07:40:46;8.98;;;5.00;;
15317;SDS011;7759;52.528;13.346;2023-06-10T07:43:12;5.82;;;4.43;;
15317;SDS011;7759;52.528;13.346;2023-06-10T07:45:41;7.45;;;4.10;;
15317;SDS011;7759;52.528;13.346;2023-06-10T07:48:06;8.05;;;4.57;;
15317;SDS011;7759;52.528;13.346;2023-06-10T07:50:33;10.20;;;4.65;;
15317;SDS011;7759;52.528;13.346;2023-06-10T07:52:59;6.22;;;3.85;;
15317;SDS011;7759;52.528;13.346;2023-06-10T07:55:25;7.32;;;3.75;;
15317;SDS011;7759;52.528;13.346;2023-06-10T07:57:51;4.97;;;3.95;;
15317;SDS011;7759;52.528;13.346;2023-06-10T08:00:17;8.45;;;4.18;;
15317;SDS011;7759;52.528;13.346;2023-06-10T08:02:43;7.07;;;3.88;;
15317;SDS011;7759;52.528;13.346;2023-06-10T08:05:09;5.30;;;3.63;;
15317;SDS011;7759;52.528;13.346;2023-06-10T08:07:35;8.70;;;4.60;;
15317;SDS011;7759;52.528;13.346;2023-06-10T08:10:01;7.68;;;5.00;;
15317;SDS011;7759;52.528;13.346;2023-06-10T08:12:27;5.80;;;3.83;;
15317;SDS011;7759;52.528;13.346;2023-06-10T08:14:53;6.18;;;4.40;;
15317;SDS011;7759;52.528;13.346;2023-06-10T08:17:20;7.85;;;4.38;;
15317;SDS011;7759;52.528;13.346;2023-06-10T08:19:45;7.38;;;4.57;;
15317;SDS011;7759;52.528;13.346;2023-06-10T08:22:11;8.60;;;4.82;;
15317;SDS011;7759;52.528;13.346;2023-06-10T08:24:37;9.48;;;4.82;;
15317;SDS011;7759;52.528;13.346;2023-06-10T08:27:03;8.15;;;5.10;;
15317;SDS011;7759;52.528;13.346;2023-06-10T08:29:30;7.93;;;6.13;;
15317;SDS011;7759;52.528;13.346;2023-06-10T08:31:57;7.03;;;5.15;;
15317;SDS011;7759;52.528;13.346;2023-06-10T08:34:23;6.75;;;4.97;;
15317;SDS011;7759;52.528;13.346;2023-06-10T08:36:49;7.22;;;4.72;;
15317;SDS011;7759;52.528;13.346;2023-06-10T08:39:20;8.82;;;4.95;;
15317;SDS011;7759;52.528;13.346;2023-06-10T08:41:49;7.97;;;4.88;;
15317;SDS011;7759;52.528;13.346;2023-06-10T08:44:20;7.32;;;4.38;;
15317;SDS011;7759;52.528;13.346;2023-06-10T08:46:47;8.15;;;5.07;;
15317;SDS011;7759;52.528;13.346;2023-06-10T08:49:15;6.82;;;4.65;;
15317;SDS011;7759;52.528;13.346;2023-06-10T08:51:42;6.65;;;4.70;;
15317;SDS011;7759;52.528;13.346;2023-06-10T08:54:14;8.30;;;4.85;;
15317;SDS011;7759;52.528;13.346;2023-06-10T08:56:44;6.78;;;4.43;;
15317;SDS011;7759;52.528;13.346;2023-06-10T08:59:13;7.20;;;4.50;;
15317;SDS011;7759;52.528;13.346;2023-06-10T09:01:41;7.30;;;4.35;;
15317;SDS011;7759;52.528;13.346;2023-06-10T09:04:07;7.35;;;4.72;;
15317;SDS011;7759;52.528;13.346;2023-06-10T09:06:33;9.00;;;4.47;;
15317;SDS011;7759;52.528;13.346;2023-06-10T09:08:59;7.45;;;4.43;;
15317;SDS011;7759;52.528;13.346;2023-06-10T09:11:25;9.18;;;3.92;;
15317;SDS011;7759;52.528;13.346;2023-06-10T09:13:51;7.72;;;4.43;;
15317;SDS011;7759;52.528;13.346;2023-06-10T09:16:17;7.25;;;3.95;;
15317;SDS011;7759;52.528;13.346;2023-06-10T09:18:43;5.50;;;3.88;;
15317;SDS011;7759;52.528;13.346;2023-06-10T09:21:09;6.22;;;4.53;;
15317;SDS011;7759;52.528;13.346;2023-06-10T09:23:36;5.70;;;4.00;;
15317;SDS011;7759;52.528;13.346;2023-06-10T09:26:02;6.80;;;4.50;;
15317;SDS011;7759;52.528;13.346;2023-06-10T09:28:33;5.88;;;4.18;;
15317;SDS011;7759;52.528;13.346;2023-06-10T09:31:03;7.07;;;4.35;;
15317;SDS011;7759;52.528;13.346;2023-06-10T09:33:30;6.88;;;4.65;;
15317;SDS011;7759;52.528;13.346;2023-06-10T09:35:56;6.80;;;4.45;;
15317;SDS011;7759;52.528;13.346;2023-06-10T09:38:29;6.32;;;4.30;;
15317;SDS011;7759;52.528;13.346;2023-06-10T09:40:55;6.68;;;4.70;;
15317;SDS011;7759;52.528;13.346;2023-06-10T09:43:21;9.52;;;4.35;;
15317;SDS011;7759;52.528;13.346;2023-06-10T09:45:50;6.68;;;4.25;;
15317;SDS011;7759;52.528;13.346;2023-06-10T09:48:19;6.45;;;4.38;;
15317;SDS011;7759;52.528;13.346;2023-06-10T09:50:45;6.88;;;4.47;;
15317;SDS011;7759;52.528;13.346;2023-06-10T09:53:11;8.05;;;4.50;;
15317;SDS011;7759;52.528;13.346;2023-06-10T09:55:40;8.93;;;4.80;;
15317;SDS011;7759;52.528;13.346;2023-06-10T09:58:07;7.00;;;4.57;;
15317;SDS011;7759;52.528;13.346;2023-06-10T10:00:33;5.95;;;4.93;;
15317;SDS011;7759;52.528;13.346;2023-06-10T10:02:59;7.07;;;4.65;;
15317;SDS011;7759;52.528;13.346;2023-06-10T10:05:25;6.10;;;4.72;;
15317;SDS011;7759;52.528;13.346;2023-06-10T10:07:52;7.75;;;4.40;;
15317;SDS011;7759;52.528;13.346;2023-06-10T10:10:19;6.25;;;5.22;;
15317;SDS011;7759;52.528;13.346;2023-06-10T10:12:46;8.32;;;4.80;;
15317;SDS011;7759;52.528;13.346;2023-06-10T10:15:13;7.22;;;4.60;;
15317;SDS011;7759;52.528;13.346;2023-06-10T10:17:40;8.63;;;4.15;;
15317;SDS011;7759;52.528;13.346;2023-06-10T10:20:09;8.55;;;4.50;;
15317;SDS011;7759;52.528;13.346;2023-06-10T10:22:38;10.57;;;4.43;;
15317;SDS011;7759;52.528;13.346;2023-06-10T10:25:11;6.13;;;4.40;;
15317;SDS011;7759;52.528;13.346;2023-06-10T10:27:49;8.10;;;4.88;;
15317;SDS011;7759;52.528;13.346;2023-06-10T10:30:17;7.25;;;4.68;;
15317;SDS011;7759;52.528;13.346;2023-06-10T10:33:04;5.40;;;4.35;;
15317;SDS011;7759;52.528;13.346;2023-06-10T10:35:29;8.10;;;4.30;;
15317;SDS011;7759;52.528;13.346;2023-06-10T10:37:56;5.55;;;3.83;;
15317;SDS011;7759;52.528;13.346;2023-06-10T10:40:22;5.15;;;4.00;;
15317;SDS011;7759;52.528;13.346;2023-06-10T10:42:49;6.25;;;3.88;;
15317;SDS011;7759;52.528;13.346;2023-06-10T10:45:15;8.13;;;4.35;;
15317;SDS011;7759;52.528;13.346;2023-06-10T10:47:42;4.78;;;3.35;;
15317;SDS011;7759;52.528;13.346;2023-06-10T10:50:15;4.05;;;3.53;;
15317;SDS011;7759;52.528;13.346;2023-06-10T10:52:54;4.63;;;3.47;;
15317;SDS011;7759;52.528;13.346;2023-06-10T10:55:21;3.70;;;3.38;;
15317;SDS011;7759;52.528;13.346;2023-06-10T10:57:53;4.57;;;3.90;;
15317;SDS011;7759;52.528;13.346;2023-06-10T11:00:24;4.50;;;3.58;;
15317;SDS011;7759;52.528;13.346;2023-06-10T11:02:50;4.22;;;3.83;;
15317;SDS011;7759;52.528;13.346;2023-06-10T11:05:18;5.80;;;3.42;;
15317;SDS011;7759;52.528;13.346;2023-06-10T11:07:56;3.67;;;3.20;;
15317;SDS011;7759;52.528;13.346;2023-06-10T11:10:28;4.22;;;3.20;;
15317;SDS011;7759;52.528;13.346;2023-06-10T11:12:54;5.88;;;3.60;;
15317;SDS011;7759;52.528;13.346;2023-06-10T11:15:24;5.00;;;3.78;;
15317;SDS011;7759;52.528;13.346;2023-06-10T11:20:45;14.82;;;3.67;;
15317;SDS011;7759;52.528;13.346;2023-06-10T11:23:24;4.90;;;3.70;;
15317;SDS011;7759;52.528;13.346;2023-06-10T11:25:50;4.85;;;3.72;;
15317;SDS011;7759;52.528;13.346;2023-06-10T11:28:19;5.45;;;4.38;;
15317;SDS011;7759;52.528;13.346;2023-06-10T11:30:45;5.05;;;3.75;;
15317;SDS011;7759;52.528;13.346;2023-06-10T11:33:16;4.28;;;3.10;;
15317;SDS011;7759;52.528;13.346;2023-06-10T11:35:42;4.22;;;3.22;;
15317;SDS011;7759;52.528;13.346;2023-06-10T11:38:08;3.65;;;3.35;;
15317;SDS011;7759;52.528;13.346;2023-06-10T11:40:34;3.72;;;3.30;;
15317;SDS011;7759;52.528;13.346;2023-06-10T11:43:00;3.53;;;3.17;;
15317;SDS011;7759;52.528;13.346;2023-06-10T11:45:27;4.80;;;3.92;;
15317;SDS011;7759;52.528;13.346;2023-06-10T11:47:56;4.22;;;3.80;;
15317;SDS011;7759;52.528;13.346;2023-06-10T11:50:29;4.72;;;3.67;;
15317;SDS011;7759;52.528;13.346;2023-06-10T11:52:55;4.18;;;3.78;;
15317;SDS011;7759;52.528;13.346;2023-06-10T11:55:21;4.80;;;4.30;;
15317;SDS011;7759;52.528;13.346;2023-06-10T11:57:47;7.22;;;3.72;;
15317;SDS011;7759;52.528;13.346;2023-06-10T12:00:13;4.97;;;4.40;;
15317;SDS011;7759;52.528;13.346;2023-06-10T12:02:40;5.43;;;4.30;;
15317;SDS011;7759;52.528;13.346;2023-06-10T12:05:12;5.45;;;4.20;;
15317;SDS011;7759;52.528;13.346;2023-06-10T12:07:38;5.25;;;4.35;;
15317;SDS011;7759;52.528;13.346;2023-06-10T12:10:04;5.72;;;4.43;;
15317;SDS011;7759;52.528;13.346;2023-06-10T12:12:30;6.43;;;4.50;;
15317;SDS011;7759;52.528;13.346;2023-06-10T12:14:56;6.22;;;5.05;;
15317;SDS011;7759;52.528;13.346;2023-06-10T12:19:49;4.15;;;3.80;;
15317;SDS011;7759;52.528;13.346;2023-06-10T12:22:15;5.20;;;4.50;;
15317;SDS011;7759;52.528;13.346;2023-06-10T12:24:44;6.80;;;5.05;;
15317;SDS011;7759;52.528;13.346;2023-06-10T12:27:11;6.97;;;5.22;;
15317;SDS011;7759;52.528;13.346;2023-06-10T12:29:37;5.18;;;4.68;;
15317;SDS011;7759;52.528;13.346;2023-06-10T12:32:03;5.82;;;3.90;;
15317;SDS011;7759;52.528;13.346;2023-06-10T12:34:35;5.57;;;4.47;;
15317;SDS011;7759;52.528;13.346;2023-06-10T12:37:02;6.18;;;4.72;;
15317;SDS011;7759;52.528;13.346;2023-06-10T12:39:30;5.97;;;4.22;;
15317;SDS011;7759;52.528;13.346;2023-06-10T12:41:57;4.75;;;4.30;;
15317;SDS011;7759;52.528;13.346;2023-06-10T12:44:30;4.63;;;4.18;;
15317;SDS011;7759;52.528;13.346;2023-06-10T12:46:56;5.20;;;4.10;;
15317;SDS011;7759;52.528;13.346;2023-06-10T12:49:22;5.00;;;4.45;;
15317;SDS011;7759;52.528;13.346;2023-06-10T12:51:47;5.13;;;3.78;;
15317;SDS011;7759;52.528;13.346;2023-06-10T12:54:14;4.68;;;4.28;;
15317;SDS011;7759;52.528;13.346;2023-06-10T12:56:40;7.65;;;4.88;;
15317;SDS011;7759;52.528;13.346;2023-06-10T12:59:06;5.43;;;4.68;;
15317;SDS011;7759;52.528;13.346;2023-06-10T13:01:31;6.68;;;4.88;;
15317;SDS011;7759;52.528;13.346;2023-06-10T13:03:58;7.63;;;5.45;;
15317;SDS011;7759;52.528;13.346;2023-06-10T13:06:24;8.13;;;5.68;;
15317;SDS011;7759;52.528;13.346;2023-06-10T13:08:50;9.00;;;5.22;;
15317;SDS011;7759;52.528;13.346;2023-06-10T13:11:16;6.93;;;5.43;;
15317;SDS011;7759;52.528;13.346;2023-06-10T13:13:42;7.22;;;5.20;;
15317;SDS011;7759;52.528;13.346;2023-06-10T13:16:08;8.05;;;5.68;;
15317;SDS011;7759;52.528;13.346;2023-06-10T13:18:34;6.63;;;5.55;;
15317;SDS011;7759;52.528;13.346;2023-06-10T13:21:05;6.68;;;5.97;;
15317;SDS011;7759;52.528;13.346;2023-06-10T13:23:31;7.28;;;5.30;;
15317;SDS011;7759;52.528;13.346;2023-06-10T13:25:57;12.52;;;6.38;;
15317;SDS011;7759;52.528;13.346;2023-06-10T13:28:23;9.60;;;6.13;;
15317;SDS011;7759;52.528;13.346;2023-06-10T13:30:49;12.23;;;6.30;;
15317;SDS011;7759;52.528;13.346;2023-06-10T13:33:15;7.63;;;6.47;;
15317;SDS011;7759;52.528;13.346;2023-06-10T13:35:41;9.50;;;5.43;;
15317;SDS011;7759;52.528;13.346;2023-06-10T13:38:07;6.82;;;5.75;;
15317;SDS011;7759;52.528;13.346;2023-06-10T13:40:33;6.55;;;5.28;;
15317;SDS011;7759;52.528;13.346;2023-06-10T13:42:59;7.20;;;5.53;;
15317;SDS011;7759;52.528;13.346;2023-06-10T13:45:25;8.18;;;5.40;;
15317;SDS011;7759;52.528;13.346;2023-06-10T13:47:52;6.32;;;4.97;;
15317;SDS011;7759;52.528;13.346;2023-06-10T13:50:18;7.65;;;5.65;;
15317;SDS011;7759;52.528;13.346;2023-06-10T13:52:44;6.82;;;4.80;;
15317;SDS011;7759;52.528;13.346;2023-06-10T13:55:10;8.20;;;5.80;;
15317;SDS011;7759;52.528;13.346;2023-06-10T13:57:36;7.97;;;5.40;;
15317;SDS011;7759;52.528;13.346;2023-06-10T14:00:02;6.38;;;5.78;;
15317;SDS011;7759;52.528;13.346;2023-06-10T14:02:29;6.90;;;5.28;;
15317;SDS011;7759;52.528;13.346;2023-06-10T14:04:55;10.65;;;5.95;;
15317;SDS011;7759;52.528;13.346;2023-06-10T14:07:21;7.18;;;5.38;;
15317;SDS011;7759;52.528;13.346;2023-06-10T14:09:47;7.30;;;5.38;;
15317;SDS011;7759;52.528;13.346;2023-06-10T14:12:13;8.27;;;6.22;;
15317;SDS011;7759;52.528;13.346;2023-06-10T14:14:39;5.85;;;5.25;;
15317;SDS011;7759;52.528;13.346;2023-06-10T14:17:04;8.13;;;4.82;;
15317;SDS011;7759;52.528;13.346;2023-06-10T14:19:30;6.03;;;5.00;;
15317;SDS011;7759;52.528;13.346;2023-06-10T14:21:56;7.13;;;5.13;;
15317;SDS011;7759;52.528;13.346;2023-06-10T14:24:22;8.45;;;5.05;;
15317;SDS011;7759;52.528;13.346;2023-06-10T14:26:48;6.10;;;5.15;;
15317;SDS011;7759;52.528;13.346;2023-06-10T14:29:14;5.15;;;4.47;;
15317;SDS011;7759;52.528;13.346;2023-06-10T14:31:40;6.55;;;5.10;;
15317;SDS011;7759;52.528;13.346;2023-06-10T14:34:06;4.55;;;4.05;;
15317;SDS011;7759;52.528;13.346;2023-06-10T14:36:33;5.95;;;3.85;;
15317;SDS011;7759;52.528;13.346;2023-06-10T14:38:59;5.75;;;4.63;;
15317;SDS011;7759;52.528;13.346;2023-06-10T14:41:25;6.57;;;4.80;;
15317;SDS011;7759;52.528;13.346;2023-06-10T14:43:51;5.88;;;5.05;;
15317;SDS011;7759;52.528;13.346;2023-06-10T14:46:17;4.38;;;3.88;;
15317;SDS011;7759;52.528;13.346;2023-06-10T14:48:45;5.18;;;4.60;;
15317;SDS011;7759;52.528;13.346;2023-06-10T14:51:11;6.78;;;5.95;;
15317;SDS011;7759;52.528;13.346;2023-06-10T14:53:37;4.97;;;3.90;;